createdAt,value
2022-10-01T00:01:03.250Z,96670.94
2022-10-01T00:03:30.549Z,96677.09
2022-10-01T00:06:02.297Z,96672.81
2022-10-01T00:08:31.507Z,96672.25
2022-10-01T00:10:58.681Z,96667.47
2022-10-01T00:13:25.850Z,96678.03
2022-10-01T00:15:53.059Z,96671.66
2022-10-01T00:18:22.146Z,96676.88
2022-10-01T00:20:49.236Z,96678.28
2022-10-01T00:23:16.636Z,96680.06
2022-10-01T00:25:43.846Z,96665.94
2022-10-01T00:28:10.971Z,96669.50
2022-10-01T00:30:40.415Z,96677.34
2022-10-01T00:33:07.690Z,96678.28
2022-10-01T00:35:36.430Z,96672.13
2022-10-01T00:38:04.059Z,96671.88
2022-10-01T00:40:31.448Z,96671.31
2022-10-01T00:42:58.761Z,96667.72
2022-10-01T00:45:26.401Z,96662.59
2022-10-01T00:47:58.245Z,96665.34
2022-10-01T00:50:32.070Z,96663.94
2022-10-01T00:53:04.528Z,96654.81
2022-10-01T00:55:36.871Z,96673.91
2022-10-01T00:58:05.614Z,96678.44
2022-10-01T01:00:33.186Z,96662.75
2022-10-01T01:03:00.685Z,96661.94
2022-10-01T01:05:28.212Z,96649.00
2022-10-01T01:07:55.355Z,96646.38
2022-10-01T01:10:31.206Z,96659.31
2022-10-01T01:13:12.040Z,96646.16
2022-10-01T01:15:47.989Z,96643.66
2022-10-01T01:18:23.130Z,96636.63
2022-10-01T01:21:08.734Z,96637.22
2022-10-01T01:24:14.714Z,96623.59
2022-10-01T01:26:53.361Z,96625.50
2022-10-01T01:29:29.744Z,96620.38
2022-10-01T01:32:04.349Z,96602.94
2022-10-01T01:34:33.443Z,96607.22
2022-10-01T01:37:06.723Z,96606.13
2022-10-01T01:39:36.315Z,96604.34
2022-10-01T01:42:09.330Z,96600.78
2022-10-01T01:44:41.756Z,96604.59
2022-10-01T01:47:10.878Z,96607.22
2022-10-01T01:49:39.727Z,96604.00
2022-10-01T01:52:10.542Z,96598.19
2022-10-01T01:54:37.857Z,96605.09
2022-10-01T01:57:06.395Z,96609.59
2022-10-01T01:59:35.814Z,96618.16
2022-10-01T02:02:05.707Z,96604.72
2022-10-01T02:04:37.657Z,96602.94
2022-10-01T02:07:21.669Z,96595.91
2022-10-01T02:09:55.574Z,96599.38
2022-10-01T02:12:36.974Z,96598.66
2022-10-01T02:15:11.541Z,96599.50
2022-10-01T02:17:53.631Z,96613.88
2022-10-01T02:20:26.501Z,96611.25
2022-10-01T02:22:59.009Z,96614.09
2022-10-01T02:25:32.469Z,96620.38
2022-10-01T02:28:06.949Z,96619.56
2022-10-01T02:30:38.289Z,96624.66
2022-10-01T02:33:11.670Z,96626.47
2022-10-01T02:35:41.299Z,96625.50
2022-10-01T02:38:10.729Z,96626.09
2022-10-01T02:40:42.150Z,96626.91
2022-10-01T02:43:15.011Z,96635.56
2022-10-01T02:45:47.693Z,96626.09
2022-10-01T02:48:17.432Z,96630.34
2022-10-01T02:50:49.834Z,96622.75
2022-10-01T02:53:22.836Z,96629.78
2022-10-01T02:55:51.121Z,96622.88
2022-10-01T02:58:20.360Z,96625.38
2022-10-01T03:00:47.754Z,96632.25
2022-10-01T03:03:17.200Z,96607.94
2022-10-01T03:05:44.479Z,96625.13
2022-10-01T03:08:11.672Z,96640.81
2022-10-01T03:10:41.497Z,96625.13
2022-10-01T03:13:12.181Z,96630.47
2022-10-01T03:15:40.399Z,96637.59
2022-10-01T03:18:07.883Z,96650.78
2022-10-01T03:20:37.780Z,96632.38
2022-10-01T03:23:05.436Z,96632.38
2022-10-01T03:25:32.657Z,96641.16
2022-10-01T03:28:00.502Z,96634.31
2022-10-01T03:30:28.338Z,96636.91
2022-10-01T03:32:55.983Z,96633.56
2022-10-01T03:35:23.086Z,96626.94
2022-10-01T03:37:53.131Z,96636.41
2022-10-01T03:40:20.866Z,96642.50
2022-10-01T03:42:47.928Z,96639.75
2022-10-01T03:45:15.095Z,96645.81
2022-10-01T03:47:42.560Z,96652.56
2022-10-01T03:50:10.429Z,96649.13
2022-10-01T03:52:37.633Z,96637.84
2022-10-01T03:55:07.310Z,96631.69
2022-10-01T03:57:34.473Z,96641.53
2022-10-01T04:00:02.227Z,96644.38
2022-10-01T04:02:29.453Z,96637.16
2022-10-01T04:04:57.040Z,96640.81
2022-10-01T04:07:24.179Z,96648.06
2022-10-01T04:09:51.296Z,96648.19
2022-10-01T04:12:20.393Z,96657.91
2022-10-01T04:14:47.430Z,96646.41
2022-10-01T04:17:14.527Z,96646.53
2022-10-01T04:19:41.685Z,96649.13
2022-10-01T04:22:09.005Z,96635.97
2022-10-01T04:24:36.581Z,96638.00
2022-10-01T04:27:04.006Z,96641.31
2022-10-01T04:29:39.347Z,96646.75
2022-10-01T04:32:07.877Z,96654.47
2022-10-01T04:34:35.121Z,96645.22
2022-10-01T04:37:02.311Z,96641.66
2022-10-01T04:39:29.428Z,96645.94
2022-10-01T04:41:56.812Z,96629.66
2022-10-01T04:44:23.985Z,96638.22
2022-10-01T04:46:52.597Z,96641.41
2022-10-01T04:49:19.998Z,96638.81
2022-10-01T04:51:47.211Z,96624.94
2022-10-01T04:54:14.376Z,96634.53
2022-10-01T04:56:41.426Z,96641.91
2022-10-01T04:59:08.556Z,96639.41
2022-10-01T05:01:36.263Z,96627.66
2022-10-01T05:04:05.580Z,96634.53
2022-10-01T05:06:32.700Z,96645.69
2022-10-01T05:09:00.348Z,96638.72
2022-10-01T05:11:28.434Z,96642.38
2022-10-01T05:13:56.047Z,96642.38
2022-10-01T05:16:23.553Z,96639.75
2022-10-01T05:18:51.301Z,96653.63
2022-10-01T05:21:20.527Z,96658.75
2022-10-01T05:23:47.988Z,96657.69
2022-10-01T05:26:15.835Z,96662.19
2022-10-01T05:28:43.357Z,96668.94
2022-10-01T05:31:11.044Z,96674.28
2022-10-01T05:33:38.415Z,96660.16
2022-10-01T05:36:07.855Z,96654.25
2022-10-01T05:38:37.922Z,96660.28
2022-10-01T05:41:05.797Z,96668.00
2022-10-01T05:43:33.279Z,96663.72
2022-10-01T05:46:01.486Z,96668.00
2022-10-01T05:48:29.328Z,96672.41
2022-10-01T05:50:59.167Z,96673.09
2022-10-01T05:53:26.413Z,96673.22
2022-10-01T05:55:56.010Z,96664.56
2022-10-01T05:58:23.489Z,96663.59
2022-10-01T06:00:50.967Z,96660.06
2022-10-01T06:03:18.444Z,96666.22
2022-10-01T06:05:46.408Z,96658.50
2022-10-01T06:08:13.933Z,96661.13
2022-10-01T06:10:41.922Z,96670.63
2022-10-01T06:13:10.915Z,96668.81
2022-10-01T06:15:39.377Z,96658.25
2022-10-01T06:18:08.218Z,96649.50
2022-10-01T06:20:36.701Z,96647.81
2022-10-01T06:23:06.261Z,96641.78
2022-10-01T06:25:34.536Z,96637.38
2022-10-01T06:28:02.274Z,96646.06
2022-10-01T06:30:32.810Z,96634.78
2022-10-01T06:33:01.199Z,96639.06
2022-10-01T06:35:28.266Z,96650.19
2022-10-01T06:37:55.541Z,96644.03
2022-10-01T06:40:22.983Z,96645.59
2022-10-01T06:42:54.871Z,96646.16
2022-10-01T06:45:24.654Z,96641.75
2022-10-01T06:47:57.284Z,96630.50
2022-10-01T06:50:25.657Z,96632.88
2022-10-01T06:52:53.609Z,96624.09
2022-10-01T06:55:22.066Z,96621.38
2022-10-01T06:57:55.031Z,96625.63
2022-10-01T07:00:23.638Z,96638.56
2022-10-01T07:02:51.116Z,96648.19
2022-10-01T07:05:20.507Z,96642.84
2022-10-01T07:07:48.228Z,96629.19
2022-10-01T07:10:17.064Z,96635.25
2022-10-01T07:12:44.228Z,96634.53
2022-10-01T07:15:11.517Z,96630.00
2022-10-01T07:17:44.082Z,96631.69
2022-10-01T07:20:11.290Z,96630.84
2022-10-01T07:22:40.573Z,96633.22
2022-10-01T07:25:08.582Z,96629.41
2022-10-01T07:27:35.841Z,96633.44
2022-10-01T07:30:02.847Z,96634.16
2022-10-01T07:32:30.584Z,96638.06
2022-10-01T07:34:58.676Z,96644.69
2022-10-01T07:37:26.287Z,96643.88
2022-10-01T07:39:54.986Z,96655.75
2022-10-01T07:42:22.198Z,96646.81
2022-10-01T07:44:49.762Z,96653.59
2022-10-01T07:47:19.851Z,96654.66
2022-10-01T07:49:47.052Z,96644.94
2022-10-01T07:52:14.222Z,96653.47
2022-10-01T07:54:41.460Z,96655.00
2022-10-01T07:57:11.012Z,96649.91
2022-10-01T07:59:38.139Z,96659.97
2022-10-01T08:02:05.674Z,96659.97
2022-10-01T08:04:32.880Z,96666.63
2022-10-01T08:07:00.322Z,96658.66
2022-10-01T08:09:28.215Z,96656.75
2022-10-01T08:11:55.696Z,96663.63
2022-10-01T08:14:25.934Z,96650.31
2022-10-01T08:16:55.655Z,96656.97
2022-10-01T08:19:22.755Z,96644.72
2022-10-01T08:21:49.916Z,96638.56
2022-10-01T08:24:17.606Z,96638.56
2022-10-01T08:26:44.870Z,96642.81
2022-10-01T08:29:16.845Z,96643.28
2022-10-01T08:31:46.436Z,96640.66
2022-10-01T08:34:13.778Z,96636.13
2022-10-01T08:36:40.790Z,96635.44
2022-10-01T08:39:08.379Z,96643.97
2022-10-01T08:41:51.436Z,96642.06
2022-10-01T08:44:21.228Z,96639.19
2022-10-01T08:46:53.086Z,96645.84
2022-10-01T08:49:24.977Z,96630.03
2022-10-01T08:51:57.278Z,96651.50
2022-10-01T08:54:34.346Z,96652.00
2022-10-01T08:57:04.472Z,96647.59
2022-10-01T08:59:41.308Z,96646.50
2022-10-01T09:02:19.504Z,96638.31
2022-10-01T09:04:47.917Z,96649.59
2022-10-01T09:07:29.442Z,96639.56
2022-10-01T09:10:05.495Z,96628.03
2022-10-01T09:12:43.936Z,96631.22
2022-10-01T09:15:21.443Z,96629.34
2022-10-01T09:18:03.014Z,96650.94
2022-10-01T09:20:36.062Z,96641.44
2022-10-01T09:23:17.826Z,96632.63
2022-10-01T09:25:49.046Z,96638.06
2022-10-01T09:28:20.104Z,96635.19
2022-10-01T09:30:54.568Z,96623.63
2022-10-01T09:33:30.637Z,96612.53
2022-10-01T09:36:08.363Z,96610.34
2022-10-01T09:38:39.581Z,96617.53
2022-10-01T09:41:09.607Z,96606.13
2022-10-01T09:43:40.020Z,96614.97
2022-10-01T09:46:08.955Z,96608.09
2022-10-01T09:48:44.968Z,96613.88
2022-10-01T09:51:17.980Z,96612.53
2022-10-01T09:53:50.820Z,96615.84
2022-10-01T09:56:27.043Z,96614.63
2022-10-01T09:58:59.058Z,96615.19
2022-10-01T10:01:39.753Z,96604.44
2022-10-01T10:04:10.081Z,96600.03
2022-10-01T10:06:39.529Z,96611.78
2022-10-01T10:09:17.281Z,96609.72
2022-10-01T10:11:45.793Z,96612.91
2022-10-01T10:14:18.300Z,96606.16
2022-10-01T10:16:46.668Z,96600.66
2022-10-01T10:19:23.813Z,96605.75
2022-10-01T10:21:53.174Z,96605.50
2022-10-01T10:24:25.784Z,96599.31
2022-10-01T10:26:54.924Z,96601.66
2022-10-01T10:29:28.107Z,96599.16
2022-10-01T10:31:56.070Z,96595.56
2022-10-01T10:34:33.131Z,96600.53
2022-10-01T10:37:03.967Z,96588.28
2022-10-01T10:39:34.602Z,96599.31
2022-10-01T10:42:03.675Z,96600.84
2022-10-01T10:44:33.464Z,96586.91
2022-10-01T10:47:03.513Z,96584.84
2022-10-01T10:49:38.735Z,96595.22
2022-10-01T10:52:20.482Z,96581.38
2022-10-01T10:54:49.940Z,96584.63
2022-10-01T10:57:20.832Z,96581.72
2022-10-01T10:59:56.655Z,96573.72
2022-10-01T11:02:25.923Z,96570.84
2022-10-01T11:04:56.179Z,96571.50
2022-10-01T11:07:26.648Z,96569.44
2022-10-01T11:10:06.336Z,96561.31
2022-10-01T11:12:53.033Z,96553.88
2022-10-01T11:15:37.198Z,96558.84
2022-10-01T11:18:33.251Z,96559.25
2022-10-01T11:21:16.906Z,96538.81
2022-10-01T11:24:03.774Z,96535.09
2022-10-01T11:26:40.895Z,96531.91
2022-10-01T11:29:23.029Z,96519.75
2022-10-01T11:32:00.802Z,96524.31
2022-10-01T11:34:48.178Z,96514.91
2022-10-01T11:37:35.013Z,96512.44
2022-10-01T11:40:13.737Z,96504.00
2022-10-01T11:42:43.031Z,96522.31
2022-10-01T11:45:18.106Z,96506.16
2022-10-01T11:47:51.194Z,96489.03
2022-10-01T11:50:21.955Z,96498.13
2022-10-01T11:52:57.785Z,96488.03
2022-10-01T11:55:30.091Z,96499.59
2022-10-01T11:58:03.689Z,96496.66
2022-10-01T12:00:31.183Z,96488.38
2022-10-01T12:03:01.992Z,96491.97
2022-10-01T12:05:34.656Z,96479.22
2022-10-01T12:08:11.732Z,96479.31
2022-10-01T12:10:44.368Z,96470.47
2022-10-01T12:13:21.795Z,96479.56
2022-10-01T12:15:55.606Z,96479.56
2022-10-01T12:18:30.247Z,96479.41
2022-10-01T12:21:01.593Z,96477.22
2022-10-01T12:23:36.504Z,96465.28
2022-10-01T12:26:18.343Z,96465.28
2022-10-01T12:28:59.928Z,96454.13
2022-10-01T12:31:35.863Z,96447.59
2022-10-01T12:34:14.044Z,96445.66
2022-10-01T12:36:52.951Z,96439.94
2022-10-01T12:39:35.942Z,96434.25
2022-10-01T12:42:26.194Z,96433.00
2022-10-01T12:45:06.201Z,96418.72
2022-10-01T12:47:45.948Z,96411.69
2022-10-01T12:50:26.794Z,96415.13
2022-10-01T12:53:08.578Z,96416.09
2022-10-01T12:55:51.833Z,96421.78
2022-10-01T12:58:33.828Z,96411.69
2022-10-01T13:01:12.270Z,96411.22
2022-10-01T13:04:03.219Z,96402.66
2022-10-01T13:06:38.617Z,96405.81
2022-10-01T13:09:14.213Z,96411.75
2022-10-01T13:12:02.425Z,96417.66
2022-10-01T13:14:34.039Z,96413.91
2022-10-01T13:17:07.054Z,96405.72
2022-10-01T13:19:42.914Z,96415.28
2022-10-01T13:22:19.431Z,96405.59
2022-10-01T13:24:54.604Z,96418.94
2022-10-01T13:27:30.848Z,96410.38
2022-10-01T13:30:02.328Z,96407.47
2022-10-01T13:32:33.108Z,96404.97
2022-10-01T13:35:02.250Z,96404.81
2022-10-01T13:37:34.859Z,96395.13
2022-10-01T13:40:03.381Z,96391.38
2022-10-01T13:42:46.255Z,96388.59
2022-10-01T13:45:26.571Z,96387.78
2022-10-01T13:48:08.484Z,96387.56
2022-10-01T13:50:36.636Z,96395.44
2022-10-01T13:53:14.391Z,96397.59
2022-10-01T13:55:43.543Z,96401.53
2022-10-01T13:58:31.201Z,96407.31
2022-10-01T14:01:00.703Z,96414.38
2022-10-01T14:03:39.709Z,96415.63
2022-10-01T14:06:15.655Z,96414.28
2022-10-01T14:08:47.881Z,96408.22
2022-10-01T14:11:17.508Z,96410.84
2022-10-01T14:13:50.084Z,96404.06
2022-10-01T14:16:17.813Z,96411.94
2022-10-01T14:18:49.465Z,96414.88
2022-10-01T14:21:35.774Z,96405.66
2022-10-01T14:24:15.344Z,96399.22
2022-10-01T14:26:53.423Z,96397.84
2022-10-01T14:29:36.097Z,96398.00
2022-10-01T14:32:17.018Z,96399.13
2022-10-01T14:34:56.467Z,96404.91
2022-10-01T14:37:23.918Z,96394.56
2022-10-01T14:40:01.762Z,96393.03
2022-10-01T14:42:29.415Z,96393.03
2022-10-01T14:44:58.328Z,96384.50
2022-10-01T14:47:26.414Z,96379.69
2022-10-01T14:49:54.974Z,96380.66
2022-10-01T14:52:24.458Z,96377.38
2022-10-01T14:54:59.637Z,96380.28
2022-10-01T14:57:34.203Z,96364.31
2022-10-01T15:00:07.432Z,96373.31
2022-10-01T15:02:34.571Z,96370.84
2022-10-01T15:05:01.772Z,96372.66
2022-10-01T15:07:35.052Z,96379.97
2022-10-01T15:10:09.507Z,96368.13
2022-10-01T15:12:40.972Z,96374.50
2022-10-01T15:15:20.965Z,96373.84
2022-10-01T15:17:49.704Z,96381.56
2022-10-01T15:20:17.788Z,96391.91
2022-10-01T15:22:47.868Z,96388.75
2022-10-01T15:25:20.983Z,96390.66
2022-10-01T15:27:50.038Z,96390.28
2022-10-01T15:30:21.098Z,96392.53
2022-10-01T15:32:50.347Z,96406.63
2022-10-01T15:35:20.983Z,96407.88
2022-10-01T15:37:50.441Z,96409.97
2022-10-01T15:40:30.596Z,96409.00
2022-10-01T15:43:22.032Z,96415.75
2022-10-01T15:46:11.421Z,96405.53
2022-10-01T15:48:38.705Z,96407.66
2022-10-01T15:51:15.060Z,96424.34
2022-10-01T15:53:42.793Z,96424.50
2022-10-01T15:56:14.299Z,96434.31
2022-10-01T15:58:48.588Z,96437.91
2022-10-01T16:01:22.468Z,96444.97
2022-10-01T16:03:55.002Z,96448.53
2022-10-01T16:06:26.391Z,96448.69
2022-10-01T16:09:03.592Z,96444.72
2022-10-01T16:11:31.426Z,96432.84
2022-10-01T16:14:22.703Z,96441.16
2022-10-01T16:17:15.088Z,96438.81
2022-10-01T16:19:43.178Z,96446.81
2022-10-01T16:22:15.209Z,96445.31
2022-10-01T16:24:44.912Z,96457.75
2022-10-01T16:27:16.107Z,96460.66
2022-10-01T16:29:43.517Z,96455.56
2022-10-01T16:32:14.593Z,96451.41
2022-10-01T16:34:41.775Z,96458.47
2022-10-01T16:37:09.688Z,96455.16
2022-10-01T16:39:37.143Z,96462.31
2022-10-01T16:42:22.766Z,96465.38
2022-10-01T16:44:50.895Z,96463.88
2022-10-01T16:47:19.535Z,96469.25
2022-10-01T16:49:49.477Z,96455.91
2022-10-01T16:52:16.832Z,96459.47
2022-10-01T16:54:44.689Z,96455.63
2022-10-01T16:57:11.824Z,96464.59
2022-10-01T16:59:39.053Z,96471.75
2022-10-01T17:02:12.031Z,96474.53
2022-10-01T17:04:41.565Z,96479.63
2022-10-01T17:07:09.024Z,96491.50
2022-10-01T17:09:36.161Z,96495.22
2022-10-01T17:12:04.213Z,96493.84
2022-10-01T17:14:31.539Z,96490.00
2022-10-01T17:16:58.877Z,96500.75
2022-10-01T17:19:26.814Z,96498.28
2022-10-01T17:21:56.473Z,96497.69
2022-10-01T17:24:23.868Z,96511.19
2022-10-01T17:26:51.808Z,96524.69
2022-10-01T17:29:19.163Z,96528.56
2022-10-01T17:31:46.672Z,96521.00
2022-10-01T17:34:14.622Z,96535.44
2022-10-01T17:36:41.912Z,96547.00
2022-10-01T17:39:11.076Z,96540.66
2022-10-01T17:41:38.044Z,96547.13
2022-10-01T17:44:05.046Z,96553.63
2022-10-01T17:46:32.750Z,96568.75
2022-10-01T17:49:00.594Z,96562.00
2022-10-01T17:51:28.388Z,96569.84
2022-10-01T17:53:55.725Z,96560.34
2022-10-01T17:56:25.281Z,96584.84
2022-10-01T17:58:53.924Z,96589.28
2022-10-01T18:01:21.925Z,96587.88
2022-10-01T18:03:53.416Z,96597.78
2022-10-01T18:06:21.609Z,96596.13
2022-10-01T18:08:56.868Z,96604.22
2022-10-01T18:11:27.848Z,96602.00
2022-10-01T18:13:55.702Z,96609.31
2022-10-01T18:16:24.163Z,96602.66
2022-10-01T18:21:42.868Z,96603.91
2022-10-01T18:24:10.121Z,96607.72
2022-10-01T18:26:39.378Z,96599.88
2022-10-01T18:29:07.102Z,96604.53
2022-10-01T18:31:37.518Z,96609.66
2022-10-01T18:34:16.780Z,96607.69
2022-10-01T18:36:55.245Z,96607.94
2022-10-01T18:39:28.435Z,96606.53
2022-10-01T18:41:57.999Z,96613.69
2022-10-01T18:44:25.861Z,96626.22
2022-10-01T18:47:00.762Z,96630.97
2022-10-01T18:50:05.081Z,96647.91
2022-10-01T18:52:44.744Z,96653.63
2022-10-01T18:55:33.034Z,96656.50
2022-10-01T18:58:27.665Z,96653.75
2022-10-01T19:01:00.923Z,96659.13
2022-10-01T19:03:57.700Z,96659.59
2022-10-01T19:06:47.517Z,96658.41
2022-10-01T19:09:27.441Z,96672.09
2022-10-01T19:12:03.541Z,96665.22
2022-10-01T19:14:46.573Z,96671.53
2022-10-01T19:17:28.112Z,96670.69
2022-10-01T19:20:12.336Z,96682.50
2022-10-01T19:22:55.167Z,96687.59
2022-10-01T19:25:27.750Z,96695.81
2022-10-01T19:28:09.482Z,96689.31
2022-10-01T19:30:52.345Z,96682.41
2022-10-01T19:33:21.564Z,96672.78
2022-10-01T19:35:52.403Z,96692.75
2022-10-01T19:38:26.270Z,96694.91
2022-10-01T19:40:58.091Z,96673.03
2022-10-01T19:43:30.481Z,96684.56
2022-10-01T19:46:11.803Z,96691.72
2022-10-01T19:48:46.570Z,96676.28
2022-10-01T19:51:18.521Z,96689.81
2022-10-01T19:53:50.251Z,96689.22
2022-10-01T19:56:24.107Z,96686.84
2022-10-01T19:58:51.371Z,96692.06
2022-10-01T20:01:22.410Z,96693.72
2022-10-01T20:03:58.082Z,96684.81
2022-10-01T20:06:29.288Z,96672.00
2022-10-01T20:09:02.510Z,96679.84
2022-10-01T20:11:31.611Z,96691.59
2022-10-01T20:14:12.324Z,96702.63
2022-10-01T20:16:45.601Z,96705.84
2022-10-01T20:19:21.455Z,96706.59
2022-10-01T20:21:59.856Z,96711.06
2022-10-01T20:24:38.318Z,96713.09
2022-10-01T20:27:19.200Z,96714.78
2022-10-01T20:29:54.925Z,96718.09
2022-10-01T20:32:31.386Z,96714.53
2022-10-01T20:35:13.003Z,96716.06
2022-10-01T20:37:55.047Z,96712.97
2022-10-01T20:40:26.641Z,96722.59
2022-10-01T20:43:00.413Z,96731.50
2022-10-01T20:45:30.164Z,96735.91
2022-10-01T20:48:02.900Z,96735.06
2022-10-01T20:50:35.007Z,96736.59
2022-10-01T20:53:15.008Z,96729.59
2022-10-01T20:55:46.168Z,96740.16
2022-10-01T20:58:18.661Z,96740.28
2022-10-01T21:00:48.229Z,96733.53
2022-10-01T21:03:29.505Z,96735.41
2022-10-01T21:06:05.312Z,96733.03
2022-10-01T21:08:49.085Z,96741.47
2022-10-01T21:11:24.613Z,96740.63
2022-10-01T21:13:55.896Z,96729.47
2022-10-01T21:16:42.604Z,96742.88
2022-10-01T21:19:26.046Z,96750.59
2022-10-01T21:22:05.840Z,96753.81
2022-10-01T21:24:51.377Z,96752.13
2022-10-01T21:27:37.514Z,96745.50
2022-10-01T21:30:09.002Z,96750.97
2022-10-01T21:33:02.259Z,96754.50
2022-10-01T21:35:42.130Z,96753.44
2022-10-01T21:38:15.683Z,96743.81
2022-10-01T21:41:04.155Z,96757.94
2022-10-01T21:43:46.913Z,96762.22
2022-10-01T21:46:24.994Z,96762.34
2022-10-01T21:48:58.790Z,96772.88
2022-10-01T21:51:43.868Z,96779.91
2022-10-01T21:54:24.171Z,96771.22
2022-10-01T21:57:18.846Z,96767.66
2022-10-01T22:00:18.103Z,96768.94
2022-10-01T22:02:59.739Z,96783.31
2022-10-01T22:05:34.626Z,96792.09
2022-10-01T22:08:16.156Z,96794.31
2022-10-01T22:10:47.160Z,96794.03
2022-10-01T22:13:19.499Z,96793.41
2022-10-01T22:15:49.586Z,96792.72
2022-10-01T22:18:21.112Z,96812.66
2022-10-01T22:20:49.658Z,96807.44
2022-10-01T22:23:20.114Z,96811.78
2022-10-01T22:25:56.011Z,96827.56
2022-10-01T22:28:29.024Z,96820.69
2022-10-01T22:30:57.966Z,96819.03
2022-10-01T22:33:30.994Z,96811.41
2022-10-01T22:36:05.364Z,96809.63
2022-10-01T22:38:39.695Z,96816.75
2022-10-01T22:41:13.138Z,96816.38
2022-10-01T22:43:40.657Z,96822.25
2022-10-01T22:46:38.547Z,96837.28
2022-10-01T22:49:18.800Z,96843.56
2022-10-01T22:51:58.138Z,96845.44
2022-10-01T22:54:39.184Z,96861.19
2022-10-01T22:57:25.383Z,96852.75
2022-10-01T23:00:02.178Z,96853.91
2022-10-01T23:02:36.072Z,96856.84
2022-10-01T23:05:28.686Z,96859.16
2022-10-01T23:08:05.153Z,96850.75
2022-10-01T23:10:42.022Z,96852.97
2022-10-01T23:13:20.224Z,96868.91
2022-10-01T23:15:56.401Z,96881.31
2022-10-01T23:18:34.464Z,96869.34
2022-10-01T23:21:14.755Z,96872.06
2022-10-01T23:23:48.995Z,96874.78
2022-10-01T23:26:36.475Z,96863.72
2022-10-01T23:29:22.634Z,96870.69
2022-10-01T23:31:59.656Z,96873.63
2022-10-01T23:34:35.379Z,96867.25
2022-10-01T23:37:18.892Z,96869.56
2022-10-01T23:39:49.628Z,96883.94
2022-10-01T23:42:31.541Z,96900.94
2022-10-01T23:45:17.297Z,96907.28
2022-10-01T23:47:50.902Z,96925.72
2022-10-01T23:50:23.217Z,96927.50
2022-10-01T23:53:00.385Z,96928.72
2022-10-01T23:55:40.781Z,96930.50
2022-10-01T23:58:14.909Z,96945.69
